CJJ4 weather

Deloraine Airport
Deloraine, Manitoba, Canada

Public forecast

Using degrees Celsius for public forecast. Weather courtesy of forecast.io.

Closest aviation weather report (METAR) to Deloraine Airport

Closest report is Rolla Municipal Airport, 38.2 nm (70.7 km) ESE. Retrieved 2019/12/15 12:35 UTC (20 minutes ago):

K06D 151235Z AUTO 23013KT 10SM -SN OVC027 M16/M19 A2978 RMK AO2

Closest aviation forecast (TAF) to Deloraine Airport

Closest forecast is Brandon Municipal Airport, 50.4 nm (93.3 km) NNE. Retrieved 2019/12/15 12:42 UTC (13 minutes ago):

TAF TAF CYBR 151140Z 1512/1524 VRB03KT P6SM FEW020 FEW100 TEMPO 1512/1513 BKN020 FM151300 25005KT P6SM -SN FEW008 BKN020 TEMPO 1513/1518 P6SM NSW SCT020 BECMG 1514/1516 26010KT FM151800 27015KT P6SM BKN025 TEMPO 1518/1524 P6SM -SN BKN020 BECMG 1518/1520 30015KT RMK NXT FCST BY 151800Z